STATION HISTORICAL DATA FROM WUNDERGROUND.COM FOR HIGH PARK VILLAGE,TORONTO,ON,CANADA
 
Daily Summary for June 20, 2018 Units:  Metric    English   Both
Next Day »
Daily Weekly Monthly Yearly Custom
  Current: High: Low: Average:
Temperature: 16.1 °C 18.4 °C 14.7 °C 15.8 °C
Dew Point: 10.4 °C 10.6 °C 8.6 °C 9.9 °C
Humidity: 69% 72% 53% 68%
Wind Speed: 0km/h 5.6km/h 0km/h 1.9km/h
Wind Gust: 0km/h 2.1km/h - -
WindCalm - - NW
Pressure: 1012.8 hPa 1014.1 hPa 1012.8 hPa -
Precipitation: 0 mm      
Historical Graphs
 
 
Tabular Data for June 20, 2018
Time Temperature Dew Point Pressure Wind Wind Speed Wind Gust Humidity Rainfall Rate (Hourly) Solar Conditions
00:04 18.4 °C 8.7 °C 1013.8 hPa WSW 1.9 km/h 0.2 km/h 53% 0 mm 0.00 W/m2
00:09 18.4 °C 8.9 °C 1014.1 hPa WSW 1.9 km/h 0.8 km/h 54% 0 mm 0.00 W/m2
00:14 18.3 °C 8.9 °C 1014.1 hPa WSW 1.9 km/h 0.2 km/h 54% 0 mm 0.00 W/m2
00:19 18.3 °C 8.6 °C 1014.1 hPa WSW 1.9 km/h 0.2 km/h 53% 0 mm 0.00 W/m2
00:24 18.3 °C 8.6 °C 1014.1 hPa WSW 1.9 km/h 0.3 km/h 53% 0 mm 0.00 W/m2
00:29 18.3 °C 8.6 °C 1014.1 hPa WSW 1.9 km/h   53% 0 mm 0.00 W/m2
00:34 18.3 °C 8.6 °C 1014.1 hPa WSW 1.9 km/h 0.6 km/h 53% 0 mm 0.00 W/m2
00:39 18.4 °C 8.7 °C 1014.1 hPa WSW 1.6 km/h 0.2 km/h 53% 0 mm 0.00 W/m2
00:44 18.4 °C 8.7 °C 1014.1 hPa Calm   0.8 km/h 53% 0 mm 0.00 W/m2
00:49 18.3 °C 9.7 °C 1014.1 hPa WNW 5.6 km/h 2.1 km/h 57% 0 mm 0.00 W/m2
00:54 18.1 °C 10 °C 1014.1 hPa NW 5.6 km/h 1.6 km/h 59% 0 mm 0.00 W/m2
00:59 17.8 °C 10.2 °C 1013.8 hPa NW 1.9 km/h 0.6 km/h 61% 0 mm 0.00 W/m2
01:04 17.6 °C 10.4 °C 1013.8 hPa NW 3.7 km/h 0.5 km/h 63% 0 mm 0.00 W/m2
01:09 17.3 °C 10.4 °C 1013.8 hPa NW 5.6 km/h 1 km/h 64% 0 mm 0.00 W/m2
01:14 17.2 °C 10.6 °C 1013.8 hPa NW 1.9 km/h 0.2 km/h 65% 0 mm 0.00 W/m2
01:19 17.1 °C 10.4 °C 1013.4 hPa NW 1.9 km/h 0.3 km/h 65% 0 mm 0.00 W/m2
01:23 17 °C 10.6 °C 1013.4 hPa Calm     66% 0 mm 0.00 W/m2
01:29 16.9 °C 10.6 °C 1013.4 hPa NW 1.9 km/h   66% 0 mm 0.00 W/m2
01:34 16.8 °C 10.4 °C 1013.4 hPa NW 3.7 km/h 0.8 km/h 66% 0 mm 0.00 W/m2
01:38 16.8 °C 10.6 °C 1013.4 hPa NW 3.7 km/h 0.2 km/h 67% 0 mm 0.00 W/m2
01:44 16.7 °C 10.5 °C 1013.4 hPa NW 3.7 km/h 0.3 km/h 67% 0 mm 0.00 W/m2
01:48 16.6 °C 10.4 °C 1013.4 hPa NW 3.7 km/h   67% 0 mm 0.00 W/m2
01:54 16.5 °C 10.3 °C 1013.4 hPa NW 1.9 km/h 0.3 km/h 67% 0 mm 0.00 W/m2 CLR
01:57 16.4 °C 10.3 °C 1013.4 hPa NW 1.9 km/h 0.3 km/h 67% 0 mm 0.00 W/m2
02:04 16.4 °C 10.3 °C 1013.1 hPa NW 1.9 km/h 0.2 km/h 67% 0 mm 0.00 W/m2
02:09 16.3 °C 10.2 °C 1013.1 hPa NW 1.9 km/h 0.2 km/h 67% 0 mm 0.00 W/m2
02:13 16.3 °C 10.4 °C 1013.1 hPa NW 1.9 km/h 0.5 km/h 68% 0 mm 0.00 W/m2
02:19 16.3 °C 10.4 °C 1013.1 hPa NW 1.9 km/h 0.3 km/h 68% 0 mm 0.00 W/m2
02:24 16.2 °C 10.3 °C 1013.1 hPa NW 1.9 km/h   68% 0 mm 0.00 W/m2
02:29 16.2 °C 10.3 °C 1013.1 hPa NW 1.9 km/h 0.3 km/h 68% 0 mm 0.00 W/m2
02:34 16.1 °C 10.4 °C 1013.1 hPa NW 1.9 km/h 0.5 km/h 69% 0 mm 0.00 W/m2
02:38 16.1 °C 10.4 °C 1013.1 hPa NW 3.7 km/h 0.6 km/h 69% 0 mm 0.00 W/m2
02:42 16 °C 10.3 °C 1013.1 hPa NW 3.7 km/h 1 km/h 69% 0 mm 0.00 W/m2
02:48 15.8 °C 10.2 °C 1013.1 hPa NW 3.7 km/h 1 km/h 69% 0 mm 0.00 W/m2
02:54 15.7 °C 10.3 °C 1013.1 hPa NW 1.9 km/h 0.5 km/h 70% 0 mm 0.00 W/m2
02:59 15.7 °C 10.2 °C 1013.1 hPa NW 3.2 km/h 0.6 km/h 70% 0 mm 0.00 W/m2
03:04 15.6 °C 10.1 °C 1013.1 hPa NW 1.9 km/h   70% 0 mm 0.00 W/m2
03:09 15.6 °C 10.1 °C 1012.8 hPa NW 1.6 km/h   70% 0 mm 0.00 W/m2
03:14 15.5 °C 10.3 °C 1012.8 hPa NW 1.6 km/h 0.3 km/h 71% 0 mm 0.00 W/m2
03:19 15.5 °C 10.1 °C 1012.8 hPa NW 1.9 km/h 0.3 km/h 70% 0 mm 0.00 W/m2
03:24 15.5 °C 10.3 °C 1012.8 hPa NW 1.6 km/h   71% 0 mm 0.00 W/m2
03:28 15.5 °C 10.3 °C 1012.8 hPa NW 1.9 km/h 0.2 km/h 71% 0 mm 0.00 W/m2
03:32 15.5 °C 10.3 °C 1012.8 hPa NW 3.7 km/h 1.1 km/h 71% 0 mm 0.00 W/m2
03:39 15.4 °C 10.2 °C 1012.8 hPa NW 1.9 km/h 0.8 km/h 71% 0 mm 0.00 W/m2
03:42 15.4 °C 10.2 °C 1012.8 hPa NW 3.7 km/h 1 km/h 71% 0 mm 0.00 W/m2
03:49 15.4 °C 10.2 °C 1012.8 hPa NW 1.9 km/h   71% 0 mm 0.00 W/m2
03:53 15.3 °C 10.1 °C 1012.8 hPa Calm     71% 0 mm 0.00 W/m2
03:58 15.3 °C 10.1 °C 1012.8 hPa NW 1.6 km/h   71% 0 mm 0.00 W/m2
04:03 15.3 °C 10.1 °C 1012.8 hPa NW 1.9 km/h 0.5 km/h 71% 0 mm 0.00 W/m2
04:08 15.3 °C 10.1 °C 1012.8 hPa NW 1.9 km/h 0.3 km/h 71% 0 mm 0.00 W/m2
04:11 15.3 °C 10.1 °C 1012.8 hPa NW 1.9 km/h 0.3 km/h 71% 0 mm 0.00 W/m2 CLR
04:18 15.3 °C 10.1 °C 1012.8 hPa NW 1.6 km/h 0.2 km/h 71% 0 mm 0.00 W/m2
04:24 15.3 °C 10.1 °C 1013.1 hPa NW 1.9 km/h   71% 0 mm 0.00 W/m2
04:29 15.3 °C 10.1 °C 1013.1 hPa NW 1.9 km/h 0.2 km/h 71% 0 mm 0.00 W/m2
04:34 15.3 °C 10.1 °C 1013.1 hPa NW 1.9 km/h 0.6 km/h 71% 0 mm 0.00 W/m2
04:38 15.2 °C 10 °C 1013.1 hPa NW 1.9 km/h   71% 0 mm 0.00 W/m2
04:43 15.2 °C 9.9 °C 1013.1 hPa Calm     71% 0 mm 0.00 W/m2
04:49 15.2 °C 9.9 °C 1013.1 hPa Calm     71% 0 mm 0.00 W/m2
04:54 15.1 °C 9.9 °C 1012.8 hPa Calm     71% 0 mm 0.00 W/m2 CLR
04:58 15.1 °C 9.9 °C 1012.8 hPa NW 1.9 km/h 0.2 km/h 71% 0 mm 0.00 W/m2
05:03 15.1 °C 9.9 °C 1012.8 hPa Calm     71% 0 mm 0.00 W/m2
05:07 15.1 °C 9.8 °C 1012.8 hPa Calm     71% 0 mm 0.00 W/m2 CLR
05:13 15.1 °C 9.8 °C 1012.8 hPa Calm     71% 0 mm 0.00 W/m2 CLR
05:18 15.1 °C 9.8 °C 1013.1 hPa NW 1.9 km/h 0.2 km/h 71% 0 mm 0.00 W/m2 CLR
05:23 15 °C 9.8 °C 1013.1 hPa NW 1.6 km/h 0.6 km/h 71% 0 mm 0.00 W/m2 CLR
05:29 14.9 °C 9.7 °C 1013.1 hPa NW 1.9 km/h 0.5 km/h 71% 0 mm 0.00 W/m2 CLR
05:34 14.9 °C 9.7 °C 1013.1 hPa NW 1.6 km/h 0.3 km/h 71% 0 mm 0.00 W/m2 CLR
05:39 14.8 °C 9.6 °C 1013.1 hPa NW 1.9 km/h 0.5 km/h 71% 0 mm 0.00 W/m2 CLR
05:44 14.8 °C 9.6 °C 1013.1 hPa NW 1.9 km/h 0.2 km/h 71% 0 mm 0.00 W/m2 CLR
05:49 14.8 °C 9.8 °C 1012.8 hPa NW 1.9 km/h 0.2 km/h 72% 0 mm 0.00 W/m2 CLR
05:54 14.8 °C 9.8 °C 1013.1 hPa NW 1.9 km/h 1.1 km/h 72% 0 mm 7.00 W/m2 CLR
05:57 14.8 °C 9.8 °C 1013.1 hPa NW 3.7 km/h 1.3 km/h 72% 0 mm 11.00 W/m2 CLR
06:04 14.8 °C 9.8 °C 1013.1 hPa NW 3.7 km/h 1.1 km/h 72% 0 mm 11.00 W/m2 CLR
06:09 14.8 °C 9.8 °C 1013.4 hPa NW 1.9 km/h 0.2 km/h 72% 0 mm 11.00 W/m2 CLR
06:14 14.7 °C 9.5 °C 1013.4 hPa NW 1.9 km/h 0.3 km/h 71% 0 mm 14.00 W/m2 CLR
06:18 14.7 °C 9.5 °C 1013.4 hPa NW 1.9 km/h 0.5 km/h 71% 0 mm 14.00 W/m2 CLR
06:24 14.7 °C 9.5 °C 1013.1 hPa NW 1.9 km/h 0.5 km/h 71% 0 mm 9.00 W/m2 CLR
06:29 14.7 °C 9.5 °C 1013.4 hPa NW 1.9 km/h 0.2 km/h 71% 0 mm 5.00 W/m2 CLR
06:34 14.7 °C 9.5 °C 1013.1 hPa NW 3.7 km/h 0.3 km/h 71% 0 mm 7.00 W/m2 CLR
06:39 14.7 °C 9.5 °C 1013.1 hPa NW 1.9 km/h   71% 0 mm 9.00 W/m2 CLR
06:44 14.7 °C 9.5 °C 1013.1 hPa NW 1.9 km/h 0.2 km/h 71% 0 mm 7.00 W/m2 CLR
06:49 14.8 °C 9.6 °C 1013.1 hPa NW 1.9 km/h 0.6 km/h 71% 0 mm 9.00 W/m2 CLR
06:54 14.8 °C 9.6 °C 1013.1 hPa NW 1.9 km/h   71% 0 mm 14.00 W/m2 CLR
06:59 14.9 °C 9.7 °C 1013.1 hPa NW 1.9 km/h 0.2 km/h 71% 0 mm 16.00 W/m2 CLR
07:04 14.9 °C 9.5 °C 1013.1 hPa NW 1.9 km/h 0.2 km/h 70% 0 mm 19.00 W/m2 OVC
07:09 14.9 °C 9.7 °C 1013.1 hPa NW 1.9 km/h 0.2 km/h 71% 0 mm 21.00 W/m2 OVC
07:14 15 °C 9.6 °C 1013.1 hPa NW 1.9 km/h   70% 0 mm 19.00 W/m2 OVC
07:19 15 °C 9.6 °C 1013.1 hPa NW 1.9 km/h   70% 0 mm 21.00 W/m2 OVC
07:24 15.1 °C 9.6 °C 1013.1 hPa NW 1.9 km/h 0.2 km/h 70% 0 mm 25.00 W/m2 OVC
07:29 15.1 °C 9.7 °C 1013.1 hPa NW 1.9 km/h 0.3 km/h 70% 0 mm 21.00 W/m2 OVC
07:34 15.2 °C 9.7 °C 1013.1 hPa NW 1.9 km/h   70% 0 mm 19.00 W/m2 OVC
07:39 15.2 °C 9.7 °C 1013.1 hPa NW 1.9 km/h 0.3 km/h 70% 0 mm 14.00 W/m2 OVC
07:44 15.2 °C 9.8 °C 1012.8 hPa Calm   0.2 km/h 70% 0 mm 16.00 W/m2 OVC
07:49 15.3 °C 9.8 °C 1012.8 hPa Calm     70% 0 mm 21.00 W/m2 OVC
07:54 15.3 °C 9.9 °C 1012.8 hPa NW 1.9 km/h 0.2 km/h 70% 0 mm 26.00 W/m2 OVC
07:59 15.4 °C 9.9 °C 1012.8 hPa Calm     70% 0 mm 21.00 W/m2 OVC
08:04 15.4 °C 10 °C 1012.8 hPa Calm     70% 0 mm 19.00 W/m2 OVC
08:09 15.5 °C 10.1 °C 1012.8 hPa Calm     70% 0 mm 21.00 W/m2 OVC
08:14 15.6 °C 10.2 °C 1012.8 hPa Calm     70% 0 mm 25.00 W/m2 OVC
08:19 15.7 °C 10.3 °C 1012.8 hPa Calm     70% 0 mm 30.00 W/m2 OVC
08:24 15.8 °C 10.3 °C 1013.1 hPa Calm   0.2 km/h 70% 0 mm 47.00 W/m2 OVC
08:29 15.9 °C 10.2 °C 1012.8 hPa Calm     69% 0 mm 39.00 W/m2 OVC
08:34 16 °C 10.3 °C 1013.1 hPa NW 4.8 km/h 0.6 km/h 69% 0 mm 35.00 W/m2 OVC
08:39 16.1 °C 10.4 °C 1013.1 hPa NW 1.9 km/h 0.2 km/h 69% 0 mm 47.00 W/m2 OVC
08:44 16.1 °C 10.4 °C 1012.8 hPa Calm     69% 0 mm 60.00 W/m2 OVC
High Park Village Arhives